Mountain City, Texas
Current Conditions -  °F | °C
As of 9:55 PM on Saturday 20 Dec 2014 (Local Time) from KHYI Reporting Station
Overcast Overcast  
Wind Chill: 50°   Ceiling: 2700
Heat Index: 50°   Visibility: 7mi
Dew Point: 46°   Wind: 8mph
Humidity: 87%   Direction: 60°ENE
Pressure: 30.18"   Gusts: NA
Location:  30.0694°N, 97.8797°W
Report Text: KHYI 210355Z 06007KT 7SM OVC027 10/08 A3018 RMK AO1
Loading
Personal Weather Stations






























Interactive Weather Map New forecast layout! Learn more

10-Day Weather Forecast

Advertisements
Track Severe Weather on mobile